createdAt,value
2023-01-30T00:08:46.835Z,2.80
2023-01-30T00:13:09.271Z,2.78
2023-01-30T00:17:20.671Z,2.80
2023-01-30T00:38:55.681Z,2.89
2023-01-30T00:43:23.639Z,2.88
2023-01-30T01:06:03.867Z,2.99
2023-01-30T01:10:36.024Z,2.98
2023-01-30T01:32:02.890Z,3.03
2023-01-30T01:41:19.445Z,3.02
2023-01-30T01:45:57.387Z,3.00
2023-01-30T01:50:27.796Z,2.99
2023-01-30T01:54:50.103Z,2.98
2023-01-30T01:59:02.427Z,2.97
2023-01-30T02:03:36.643Z,2.93
2023-01-30T02:30:05.913Z,2.73
2023-01-30T02:34:37.383Z,2.69
2023-01-30T02:39:05.378Z,2.68
2023-01-30T02:43:33.348Z,2.69
2023-01-30T02:47:55.837Z,2.70
2023-01-30T03:09:48.733Z,2.74
2023-01-30T03:14:30.244Z,2.76
2023-01-30T03:19:00.192Z,2.76
2023-01-30T03:44:47.464Z,2.92
2023-01-30T03:48:56.645Z,2.93
2023-01-30T03:53:25.744Z,2.95
2023-01-30T03:58:02.422Z,2.97
2023-01-30T04:19:32.782Z,3.06
2023-01-30T04:24:01.952Z,3.06
2023-01-30T04:28:24.127Z,3.08
2023-01-30T04:32:46.034Z,3.07
2023-01-30T04:36:44.022Z,3.04
2023-01-30T04:41:13.031Z,2.99
2023-01-30T05:02:02.921Z,2.92
2023-01-30T05:06:12.114Z,2.90
2023-01-30T05:10:09.575Z,2.90
2023-01-30T05:14:32.516Z,2.90
2023-01-30T05:41:39.380Z,2.96
2023-01-30T05:45:57.658Z,2.95
2023-01-30T06:11:58.856Z,2.89
2023-01-30T06:16:27.887Z,2.85
2023-01-30T06:20:57.060Z,2.85
2023-01-30T06:25:16.722Z,2.85
2023-01-30T06:29:36.413Z,2.87
2023-01-30T06:33:49.691Z,2.91
2023-01-30T06:37:52.308Z,2.93
2023-01-30T06:41:12.384Z,2.97
2023-01-30T06:45:30.345Z,2.99
2023-01-30T06:49:27.282Z,3.01
2023-01-30T06:53:12.519Z,3.05
2023-01-30T06:56:43.706Z,3.09
2023-01-30T07:00:22.669Z,3.13
2023-01-30T07:04:45.186Z,3.18
2023-01-30T07:08:59.762Z,3.22
2023-01-30T07:13:11.710Z,3.26
2023-01-30T07:16:34.126Z,3.31
2023-01-30T07:20:52.995Z,3.37
2023-01-30T07:24:55.460Z,3.43
2023-01-30T07:28:50.718Z,3.48
2023-01-30T07:33:02.847Z,3.54
2023-01-30T07:37:03.817Z,3.62
2023-01-30T07:40:29.412Z,3.70
2023-01-30T07:43:46.644Z,3.77
2023-01-30T07:47:19.687Z,3.84
2023-01-30T07:51:16.865Z,3.90
2023-01-30T07:57:56.836Z,4.01
2023-01-30T08:01:42.234Z,4.06
2023-01-30T08:12:33.265Z,4.26
2023-01-30T08:16:40.780Z,4.34
2023-01-30T08:20:37.834Z,4.47
2023-01-30T08:24:44.203Z,4.55
2023-01-30T08:28:24.213Z,4.62
2023-01-30T08:32:36.370Z,4.69
2023-01-30T08:36:51.038Z,4.77
2023-01-30T08:40:21.750Z,4.83
2023-01-30T08:43:44.009Z,4.87
2023-01-30T08:47:30.664Z,4.92
2023-01-30T08:51:27.335Z,4.99
2023-01-30T08:54:48.373Z,5.07
2023-01-30T08:58:02.000Z,5.11
2023-01-30T09:01:09.367Z,5.17
2023-01-30T09:04:25.028Z,5.28
2023-01-30T09:08:24.096Z,5.52
2023-01-30T09:11:56.125Z,5.68
2023-01-30T09:15:47.133Z,5.77
2023-01-30T09:20:07.237Z,5.81
2023-01-30T09:24:22.556Z,5.77
2023-01-30T09:28:01.787Z,5.69
2023-01-30T09:31:22.539Z,5.69
2023-01-30T09:34:22.052Z,5.71
2023-01-30T09:38:19.053Z,5.75
2023-01-30T09:42:03.028Z,5.83
2023-01-30T09:46:00.677Z,5.86
2023-01-30T09:50:14.602Z,5.93
2023-01-30T09:54:18.148Z,6.02
2023-01-30T09:57:59.263Z,6.07
2023-01-30T10:02:01.369Z,6.13
2023-01-30T10:06:12.081Z,6.24
2023-01-30T10:10:39.507Z,6.42
2023-01-30T10:14:36.422Z,6.49
2023-01-30T10:18:53.569Z,6.47
2023-01-30T10:22:45.970Z,6.35
2023-01-30T10:29:40.317Z,5.84
2023-01-30T10:33:01.168Z,5.74
2023-01-30T10:37:04.307Z,5.66
2023-01-30T10:40:59.497Z,5.62
2023-01-30T10:45:03.702Z,5.62
2023-01-30T10:49:55.396Z,5.73
2023-01-30T10:53:43.177Z,5.84
2023-01-30T10:57:45.137Z,5.90
2023-01-30T11:47:28.375Z,5.00
2023-01-30T11:51:04.716Z,4.72
2023-01-30T11:58:50.213Z,4.28
2023-01-30T12:01:52.121Z,4.16
2023-01-30T12:06:06.658Z,4.06
2023-01-30T12:09:24.504Z,3.98
2023-01-30T12:13:04.093Z,3.96
2023-01-30T12:21:24.559Z,3.97
2023-01-30T12:25:33.001Z,3.95
2023-01-30T12:29:04.818Z,3.95
2023-01-30T12:32:50.762Z,3.96
2023-01-30T12:37:19.207Z,3.97
2023-01-30T12:41:40.780Z,3.94
2023-01-30T12:45:39.378Z,3.89
2023-01-30T12:49:46.678Z,3.85
2023-01-30T12:53:39.761Z,3.90
2023-01-30T12:57:22.321Z,4.11
2023-01-30T13:01:28.476Z,4.39
2023-01-30T13:06:11.556Z,4.70
2023-01-30T13:10:09.074Z,4.96
2023-01-30T13:13:52.808Z,5.10
2023-01-30T13:18:23.326Z,5.41
2023-01-30T13:22:16.222Z,5.75
2023-01-30T13:30:50.452Z,5.96
2023-01-30T13:33:55.014Z,5.89
2023-01-30T13:37:57.360Z,5.74
2023-01-30T13:41:46.030Z,5.62
2023-01-30T13:46:02.739Z,5.50
2023-01-30T13:50:24.549Z,5.39
2023-01-30T13:54:32.980Z,5.33
2023-01-30T13:58:25.911Z,5.29
2023-01-30T14:02:42.284Z,5.23
2023-01-30T14:06:13.537Z,5.19
2023-01-30T14:09:56.611Z,5.18
2023-01-30T14:13:15.189Z,5.16
2023-01-30T14:16:22.328Z,5.13
2023-01-30T14:19:50.808Z,5.12
2023-01-30T14:23:35.470Z,5.12
2023-01-30T14:28:00.657Z,5.10
2023-01-30T14:31:07.904Z,5.09
2023-01-30T14:35:03.215Z,5.07
2023-01-30T14:38:50.237Z,5.04
2023-01-30T14:41:54.523Z,5.00
2023-01-30T14:45:13.700Z,4.99
2023-01-30T14:49:48.805Z,4.97
2023-01-30T14:53:15.867Z,4.93
2023-01-30T14:56:54.979Z,4.88
2023-01-30T15:00:25.626Z,4.84
2023-01-30T15:03:48.457Z,4.80
2023-01-30T15:06:41.936Z,4.76
2023-01-30T15:09:57.530Z,4.71
2023-01-30T15:13:38.976Z,4.68
2023-01-30T15:18:01.988Z,4.64
2023-01-30T15:22:06.537Z,4.59
2023-01-30T15:25:56.604Z,4.55
2023-01-30T15:30:03.165Z,4.48
2023-01-30T15:33:55.542Z,4.44
2023-01-30T15:37:36.234Z,4.40
2023-01-30T15:41:02.865Z,4.38
2023-01-30T15:45:00.928Z,4.38
2023-01-30T15:48:19.831Z,4.36
2023-01-30T15:51:29.765Z,4.34
2023-01-30T15:55:38.426Z,4.32
2023-01-30T15:59:34.688Z,4.32
2023-01-30T16:04:05.265Z,4.33
2023-01-30T16:08:01.165Z,4.37
2023-01-30T16:11:16.821Z,4.41
2023-01-30T16:15:18.411Z,4.42
2023-01-30T16:19:26.668Z,4.45
2023-01-30T16:23:45.215Z,4.48
2023-01-30T16:27:59.158Z,4.51
2023-01-30T16:31:56.236Z,4.55
2023-01-30T16:36:15.948Z,4.58
2023-01-30T16:40:33.920Z,4.60
2023-01-30T16:45:14.069Z,4.63
2023-01-30T16:49:44.124Z,4.67
2023-01-30T16:53:15.853Z,4.70
2023-01-30T16:56:47.753Z,4.74
2023-01-30T17:01:09.375Z,4.76
2023-01-30T17:04:44.366Z,4.77
2023-01-30T17:09:10.725Z,4.80
2023-01-30T17:41:57.738Z,4.91
2023-01-30T17:46:28.203Z,4.85
2023-01-30T17:50:58.431Z,4.82
2023-01-30T17:55:18.453Z,4.81
2023-01-30T17:59:49.102Z,4.78
2023-01-30T18:04:18.983Z,4.75
2023-01-30T18:08:49.867Z,4.76
2023-01-30T18:43:13.581Z,4.86
2023-01-30T18:47:35.885Z,4.86
2023-01-30T18:51:58.199Z,4.89
2023-01-30T18:56:29.879Z,4.91
2023-01-30T19:00:43.784Z,4.90
2023-01-30T19:05:13.248Z,4.87
2023-01-30T19:29:52.283Z,4.89
2023-01-30T19:34:05.066Z,4.90
2023-01-30T19:38:07.022Z,4.92
2023-01-30T19:42:40.370Z,4.93
2023-01-30T19:47:14.487Z,4.96
2023-01-30T19:51:22.650Z,4.99
2023-01-30T19:55:28.844Z,5.03
2023-01-30T19:59:57.898Z,5.07
2023-01-30T20:04:26.099Z,5.10
2023-01-30T20:08:55.751Z,5.12
2023-01-30T20:12:45.219Z,5.13
2023-01-30T20:15:45.517Z,5.14
2023-01-30T20:20:05.850Z,5.15
2023-01-30T20:50:31.314Z,5.18
2023-01-30T20:55:01.429Z,5.15
2023-01-30T20:59:32.229Z,5.12
2023-01-30T21:22:07.464Z,5.08
2023-01-30T21:26:27.418Z,5.03
2023-01-30T21:30:57.160Z,4.99
2023-01-30T21:39:19.113Z,4.93
2023-01-30T21:43:48.157Z,4.86
2023-01-30T21:48:00.545Z,4.82
2023-01-30T22:14:15.268Z,4.72
2023-01-30T22:18:44.497Z,4.64
2023-01-30T22:23:02.243Z,4.56
2023-01-30T22:27:27.572Z,4.50
2023-01-30T22:49:23.839Z,4.19
2023-01-30T22:53:54.724Z,4.12
2023-01-30T23:15:42.647Z,3.96
2023-01-30T23:19:54.957Z,3.92
2023-01-30T23:24:24.392Z,3.90
2023-01-30T23:46:01.604Z,3.84
2023-01-30T23:50:31.008Z,3.80
2023-01-30T23:55:01.094Z,3.76
